Time;durP1;ratioP1;P1;durP2;ratioP2;P2;SDS_P1;SDS_P2;PMS_P1;PMS_P2;Temp;Humidity;BMP_temperature;BMP_pressure;BME280_temperature;BME280_humidity;BME280_pressure;Samples;Min_cycle;Max_cycle;Signal;HPM_P1;HPM_P2
2021/09/11 00:02:06;;;;;;;16.43;4.30;;;;;;;13.36;55.90;101609.00;6152395;23;20156;-67
2021/09/11 00:04:31;;;;;;;11.27;3.80;;;;;;;13.42;55.59;101606.50;6151774;23;20238;-67
2021/09/11 00:06:57;;;;;;;11.00;3.77;;;;;;;13.46;55.58;101605.22;6152764;23;20455;-67
2021/09/11 00:09:23;;;;;;;9.10;3.33;;;;;;;13.35;55.20;101598.28;6150051;23;20164;-67
2021/09/11 00:11:48;;;;;;;8.37;3.47;;;;;;;13.42;55.22;101620.44;6152683;23;20233;-67
2021/09/11 00:14:14;;;;;;;9.00;3.73;;;;;;;13.46;55.45;101610.78;6152216;23;20619;-67
2021/09/11 00:16:40;;;;;;;12.43;3.63;;;;;;;13.52;55.51;101611.09;6152824;23;20165;-67
2021/09/11 00:19:05;;;;;;;10.07;4.10;;;;;;;13.32;55.57;101574.88;6151645;23;20681;-67
2021/09/11 00:21:31;;;;;;;7.37;3.90;;;;;;;13.28;55.47;101571.34;6152659;23;20160;-67
2021/09/11 00:23:56;;;;;;;9.53;3.70;;;;;;;13.61;55.31;101616.84;6151581;23;20182;-67
2021/09/11 00:26:22;;;;;;;8.67;3.80;;;;;;;13.43;55.34;101583.78;6151922;23;20253;-66
2021/09/11 00:28:47;;;;;;;10.00;3.50;;;;;;;13.52;54.65;101605.50;6150096;23;20231;-67
2021/09/11 00:31:13;;;;;;;7.67;4.00;;;;;;;13.52;54.81;101611.09;6150744;23;20154;-67
2021/09/11 00:33:38;;;;;;;6.63;3.83;;;;;;;13.30;54.75;101570.94;6150338;23;20205;-67
2021/09/11 00:36:04;;;;;;;6.97;3.60;;;;;;;13.11;55.07;101563.38;6150832;23;20151;-69
2021/09/11 00:38:30;;;;;;;4.77;3.73;;;;;;;13.48;55.19;101611.13;6149223;23;20500;-67
2021/09/11 00:40:55;;;;;;;8.87;3.60;;;;;;;13.21;55.07;101577.06;6151137;23;20163;-67
2021/09/11 00:43:26;;;;;;;9.97;3.43;;;;;;;13.20;55.27;101580.28;6150083;23;20639;-67
2021/09/11 00:45:52;;;;;;;7.60;3.53;;;;;;;13.40;55.33;101603.34;6150820;23;20161;-67
2021/09/11 00:48:18;;;;;;;9.60;4.10;;;;;;;13.41;55.20;101616.06;6150381;23;20161;-67
2021/09/11 00:50:45;;;;;;;7.07;3.40;;;;;;;13.37;55.31;101618.91;6150051;23;20151;-67
2021/09/11 00:53:13;;;;;;;8.00;3.77;;;;;;;13.29;55.51;101625.84;6150507;23;20225;-66
2021/09/11 00:55:38;;;;;;;9.27;3.63;;;;;;;13.21;55.42;101618.81;6150409;23;20492;-67
2021/09/11 00:58:04;;;;;;;8.00;3.57;;;;;;;13.20;55.72;101628.41;6149943;23;20419;-67
2021/09/11 01:00:30;;;;;;;6.47;3.27;;;;;;;12.70;54.65;101569.25;6150681;23;20158;-67
2021/09/11 01:02:55;;;;;;;5.30;3.30;;;;;;;12.94;55.05;101634.00;6150287;23;20644;-67
2021/09/11 01:05:21;;;;;;;6.00;3.10;;;;;;;12.39;54.90;101553.09;6150274;23;20587;-67
2021/09/11 01:07:47;;;;;;;6.97;3.77;;;;;;;12.62;55.40;101590.06;6149620;23;20562;-66
2021/09/11 01:10:13;;;;;;;5.37;3.83;;;;;;;12.87;55.99;101623.00;6150964;23;20163;-66
2021/09/11 01:12:39;;;;;;;8.03;4.07;;;;;;;12.83;56.18;101627.84;6150204;23;20500;-67
2021/09/11 01:15:08;;;;;;;7.13;4.43;;;;;;;12.77;56.10;101623.97;6124021;23;20168;-69
2021/09/11 01:17:33;;;;;;;11.13;4.03;;;;;;;12.66;56.25;101617.81;6147728;23;20164;-69
2021/09/11 01:19:59;;;;;;;9.97;4.30;;;;;;;12.71;56.22;101628.47;6150969;23;20158;-67
2021/09/11 01:22:25;;;;;;;7.23;4.17;;;;;;;12.65;56.67;101630.16;6150331;23;20180;-67
2021/09/11 01:24:59;;;;;;;8.63;3.93;;;;;;;12.62;56.83;101626.22;6150225;23;20204;-66
2021/09/11 01:27:26;;;;;;;9.47;4.03;;;;;;;12.58;56.54;101638.59;6096512;23;1275010;-66
2021/09/11 01:30:04;;;;;;;9.10;4.53;;;;;;;12.54;56.59;101638.66;6125781;23;20572;-69
2021/09/11 01:32:31;;;;;;;11.30;4.53;;;;;;;12.51;56.62;101631.16;6151377;23;20175;-67
2021/09/11 01:34:57;;;;;;;7.53;4.33;;;;;;;12.29;56.83;101613.22;6151290;23;20521;-67
2021/09/11 01:37:23;;;;;;;9.37;4.27;;;;;;;12.35;56.63;101628.22;6150951;23;20150;-66
2021/09/11 01:39:49;;;;;;;8.57;4.37;;;;;;;12.13;56.64;101612.28;6151485;23;20157;-66
2021/09/11 01:42:20;;;;;;;7.40;3.97;;;;;;;12.34;56.73;101645.34;6151948;23;20225;-66
2021/09/11 01:45:09;;;;;;;8.03;3.77;;;;;;;11.93;56.85;101589.19;6151657;23;20249;-69
2021/09/11 01:47:36;;;;;;;9.20;4.23;;;;;;;12.23;57.07;101653.03;6123374;23;20245;-66
2021/09/11 01:50:02;;;;;;;10.80;4.13;;;;;;;12.20;57.10;101654.66;6152151;23;20211;-67
2021/09/11 01:52:27;;;;;;;10.97;4.47;;;;;;;12.22;57.30;101652.25;6151321;23;20236;-67
2021/09/11 01:54:53;;;;;;;10.93;3.83;;;;;;;12.15;57.12;101654.34;6151140;23;20220;-66
2021/09/11 01:57:18;;;;;;;6.73;3.50;;;;;;;11.98;56.61;101622.81;6151926;23;20156;-66
2021/09/11 01:59:44;;;;;;;12.77;4.47;;;;;;;11.86;57.31;101640.03;6150883;23;20160;-67
2021/09/11 02:02:09;;;;;;;13.67;4.63;;;;;;;11.71;57.95;101644.19;6125478;23;20160;-66
2021/09/11 02:04:36;;;;;;;7.97;4.23;;;;;;;11.65;57.76;101640.31;6150749;23;20174;-69
2021/09/11 02:07:02;;;;;;;8.53;4.27;;;;;;;11.59;58.20;101644.72;6151511;23;20157;-66
2021/09/11 02:09:29;;;;;;;10.60;4.70;;;;;;;11.45;58.26;101603.25;6150804;23;20153;-66
2021/09/11 02:11:54;;;;;;;9.83;4.27;;;;;;;11.72;58.48;101642.19;6151430;23;20156;-66
2021/09/11 02:14:20;;;;;;;11.43;4.63;;;;;;;11.61;58.98;101633.22;6150753;23;20150;-67
2021/09/11 02:16:46;;;;;;;14.23;4.80;;;;;;;11.37;58.33;101587.09;6151459;23;20231;-66
2021/09/11 02:19:12;;;;;;;22.33;5.80;;;;;;;11.07;58.49;101571.16;6150588;23;20210;-67
2021/09/11 02:21:37;;;;;;;25.30;6.10;;;;;;;11.49;58.46;101637.31;6151698;23;20507;-69
2021/09/11 02:24:04;;;;;;;14.90;5.17;;;;;;;11.21;59.09;101603.50;6150720;23;20177;-67
2021/09/11 02:26:29;;;;;;;14.00;5.10;;;;;;;11.21;59.52;101601.53;6151158;23;20194;-66
2021/09/11 02:28:55;;;;;;;8.80;4.87;;;;;;;11.07;59.83;101593.34;6150682;23;20223;-66
2021/09/11 02:31:20;;;;;;;5.67;3.87;;;;;;;11.26;60.17;101628.03;6150955;23;20233;-67
2021/09/11 02:33:49;;;;;;;9.70;4.10;;;;;;;11.03;60.78;101619.56;6150820;23;20233;-67
2021/09/11 02:36:15;;;;;;;8.97;4.40;;;;;;;10.89;60.13;101597.50;6151588;23;20157;-67
2021/09/11 02:38:41;;;;;;;8.47;4.00;;;;;;;11.14;60.35;101634.13;6149787;23;20190;-69
2021/09/11 02:41:07;;;;;;;7.60;4.27;;;;;;;11.10;60.29;101633.34;6151343;23;20503;-69
2021/09/11 02:43:33;;;;;;;10.93;4.53;;;;;;;10.99;60.58;101636.25;6150508;23;20252;-67
2021/09/11 02:45:58;;;;;;;10.50;4.33;;;;;;;10.98;61.04;101628.34;6151243;23;20504;-69
2021/09/11 02:48:24;;;;;;;8.80;4.40;;;;;;;10.70;60.58;101573.13;6150519;23;20157;-66
2021/09/11 02:50:50;;;;;;;8.80;4.30;;;;;;;11.11;60.51;101627.41;6151102;23;20165;-69
2021/09/11 02:53:16;;;;;;;5.73;3.97;;;;;;;11.22;59.98;101635.63;6151013;23;20229;-67
2021/09/11 02:55:41;;;;;;;7.57;3.97;;;;;;;11.25;60.40;101632.81;6150896;23;20185;-66
2021/09/11 02:58:07;;;;;;;7.80;4.00;;;;;;;11.24;60.55;101639.56;6150238;23;20263;-67
2021/09/11 03:00:33;;;;;;;8.43;4.43;;;;;;;11.23;60.65;101621.31;6151124;23;20160;-66
2021/09/11 03:02:59;;;;;;;10.33;4.17;;;;;;;11.36;60.50;101632.69;6150765;23;20236;-66
2021/09/11 03:05:25;;;;;;;10.13;4.17;;;;;;;11.31;60.44;101624.81;6151006;23;20154;-69
2021/09/11 03:07:50;;;;;;;5.90;3.90;;;;;;;11.44;60.38;101640.53;6150636;23;20539;-68
2021/09/11 03:10:16;;;;;;;10.43;5.20;;;;;;;11.46;60.08;101638.13;6151165;23;20158;-68
2021/09/11 03:12:41;;;;;;;8.93;4.87;;;;;;;11.30;60.05;101615.72;6149084;23;20157;-66
2021/09/11 03:15:08;;;;;;;10.30;4.50;;;;;;;11.31;60.49;101625.59;6150803;23;20408;-66
2021/09/11 03:17:33;;;;;;;8.47;4.33;;;;;;;11.51;60.57;101650.75;6150380;23;20157;-66
2021/09/11 03:19:59;;;;;;;8.80;4.53;;;;;;;11.48;59.99;101646.03;6151799;23;20160;-66
2021/09/11 03:22:24;;;;;;;10.10;4.40;;;;;;;11.54;59.95;101647.94;6150823;23;20150;-67
2021/09/11 03:24:50;;;;;;;15.93;5.80;;;;;;;11.61;59.74;101653.44;6150830;23;20269;-66
2021/09/11 03:27:15;;;;;;;17.60;5.83;;;;;;;11.38;59.22;101613.66;6150916;23;20232;-69
2021/09/11 03:29:41;;;;;;;16.43;5.47;;;;;;;11.69;59.24;101657.69;6150106;23;20154;-67
2021/09/11 03:32:07;;;;;;;11.30;4.33;;;;;;;11.76;59.01;101659.59;6151408;23;20149;-69
2021/09/11 03:34:33;;;;;;;6.93;4.43;;;;;;;11.78;58.87;101655.22;6149987;23;20157;-67
2021/09/11 03:36:59;;;;;;;9.73;3.50;;;;;;;11.67;58.79;101648.22;6151159;23;20575;-66
2021/09/11 03:39:24;;;;;;;11.97;4.20;;;;;;;11.80;58.56;101655.59;6150137;23;20149;-69
2021/09/11 03:41:50;;;;;;;10.50;4.27;;;;;;;11.59;58.22;101630.06;6151056;23;20604;-67
2021/09/11 03:44:15;;;;;;;7.00;4.13;;;;;;;11.30;57.75;101612.94;6150258;23;20232;-67
2021/09/11 03:46:41;;;;;;;10.07;4.47;;;;;;;11.41;57.92;101651.66;6151018;23;20153;-67
2021/09/11 03:49:06;;;;;;;8.80;3.90;;;;;;;11.08;58.16;101613.56;6148230;23;20165;-67
2021/09/11 03:51:34;;;;;;;7.53;4.33;;;;;;;11.29;58.03;101641.91;6149436;23;20472;-69
2021/09/11 03:54:00;;;;;;;6.87;4.13;;;;;;;11.21;58.66;101634.81;6150625;23;20154;-67
2021/09/11 03:56:25;;;;;;;9.53;4.50;;;;;;;11.04;59.29;101604.50;6149256;23;20689;-69
2021/09/11 03:58:51;;;;;;;9.77;4.63;;;;;;;11.36;59.51;101655.69;6151943;23;20154;-69
2021/09/11 04:01:16;;;;;;;8.43;3.97;;;;;;;11.30;59.72;101650.97;6151330;23;20167;-66
2021/09/11 04:03:41;;;;;;;8.47;4.30;;;;;;;11.17;59.51;101658.28;6150163;23;20192;-66
2021/09/11 04:06:07;;;;;;;8.80;4.03;;;;;;;11.11;59.32;101646.03;6153031;23;20150;-66
2021/09/11 04:08:32;;;;;;;17.80;4.67;;;;;;;11.01;59.25;101636.63;6151448;23;20662;-67
2021/09/11 04:10:59;;;;;;;21.20;5.13;;;;;;;11.16;59.42;101651.94;6152922;23;20164;-69
2021/09/11 04:13:25;;;;;;;10.47;4.20;;;;;;;11.23;58.87;101651.84;6151982;23;20517;-66
2021/09/11 04:15:51;;;;;;;7.47;3.17;;;;;;;11.30;58.95;101662.09;6151936;23;20160;-66
2021/09/11 04:18:16;;;;;;;6.57;4.07;;;;;;;11.17;58.66;101642.41;6151797;23;20150;-66
2021/09/11 04:20:42;;;;;;;8.17;4.30;;;;;;;10.92;59.02;101621.66;6152497;23;20161;-69
2021/09/11 04:23:08;;;;;;;11.97;4.40;;;;;;;11.24;59.48;101670.09;6152445;23;20184;-69
2021/09/11 04:25:33;;;;;;;8.17;4.30;;;;;;;11.14;59.94;101664.63;6152083;23;20157;-69
2021/09/11 04:27:59;;;;;;;10.23;4.33;;;;;;;10.78;59.28;101625.34;6151326;23;20539;-69
2021/09/11 04:30:25;;;;;;;12.77;4.10;;;;;;;10.92;59.17;101674.34;6126374;23;20497;-66
2021/09/11 04:32:50;;;;;;;6.20;3.73;;;;;;;10.89;59.42;101658.53;6150828;23;20178;-66
2021/09/11 04:35:16;;;;;;;10.37;4.20;;;;;;;10.81;59.78;101630.06;6126397;23;20189;-66
2021/09/11 04:37:41;;;;;;;7.60;3.90;;;;;;;10.89;59.93;101641.88;6151089;23;20611;-66
2021/09/11 04:40:07;;;;;;;9.10;4.37;;;;;;;10.98;60.10;101647.75;6152308;23;20209;-66
2021/09/11 04:42:33;;;;;;;9.87;5.10;;;;;;;11.21;59.80;101665.34;6152061;23;20153;-67
2021/09/11 04:44:58;;;;;;;6.77;4.00;;;;;;;10.79;60.39;101607.50;6151992;23;20207;-66
2021/09/11 04:47:24;;;;;;;10.83;4.37;;;;;;;11.22;60.40;101658.59;6149949;23;20481;-69
2021/09/11 04:49:49;;;;;;;12.23;4.33;;;;;;;11.31;60.32;101661.69;6151925;23;20154;-66
2021/09/11 04:52:15;;;;;;;12.47;5.13;;;;;;;11.20;59.66;101627.72;6152297;23;20150;-67
2021/09/11 04:54:40;;;;;;;10.77;4.77;;;;;;;11.60;59.75;101668.53;6151391;23;20608;-66
2021/09/11 04:57:06;;;;;;;9.43;4.37;;;;;;;11.51;59.69;101642.41;6152550;23;20676;-66
2021/09/11 04:59:32;;;;;;;11.20;4.53;;;;;;;11.71;60.00;101671.97;6150874;23;20154;-66
2021/09/11 05:01:57;;;;;;;7.70;4.60;;;;;;;11.83;59.82;101667.88;6151939;23;20494;-69
2021/09/11 05:04:24;;;;;;;13.00;4.53;;;;;;;11.77;59.51;101650.88;6151321;23;20181;-67
2021/09/11 05:06:50;;;;;;;15.27;5.47;;;;;;;12.05;59.22;101674.72;6151938;23;20236;-67
2021/09/11 05:09:15;;;;;;;13.03;4.60;;;;;;;12.07;58.77;101672.31;6151008;23;20188;-67
2021/09/11 05:11:41;;;;;;;12.77;4.73;;;;;;;12.25;58.70;101672.88;6151816;23;20159;-67
2021/09/11 05:14:07;;;;;;;17.93;4.80;;;;;;;12.33;58.72;101685.44;6151654;23;20623;-67
2021/09/11 05:16:32;;;;;;;10.30;4.10;;;;;;;11.85;58.88;101605.16;6151584;23;20240;-67
2021/09/11 05:18:58;;;;;;;6.93;4.43;;;;;;;12.29;58.54;101666.03;6149137;23;20164;-67
2021/09/11 05:21:23;;;;;;;12.83;4.27;;;;;;;12.46;58.58;101681.66;6152160;23;20173;-67
2021/09/11 05:23:49;;;;;;;10.50;4.30;;;;;;;12.59;58.32;101690.22;6151122;23;20181;-67
2021/09/11 05:26:14;;;;;;;14.07;4.63;;;;;;;12.43;58.19;101651.94;6151954;23;20154;-67
2021/09/11 05:28:40;;;;;;;14.27;4.73;;;;;;;12.77;58.26;101690.75;6150813;23;20142;-67
2021/09/11 05:31:05;;;;;;;14.00;4.80;;;;;;;12.86;58.07;101694.56;6151871;23;20503;-67
2021/09/11 05:33:31;;;;;;;14.37;5.37;;;;;;;12.95;58.42;101682.88;6151396;23;20177;-67
2021/09/11 05:35:56;;;;;;;11.77;4.93;;;;;;;12.99;59.33;101692.00;6151294;23;20563;-67
2021/09/11 05:38:21;;;;;;;12.40;5.10;;;;;;;12.77;59.26;101647.03;6150826;23;20150;-67
2021/09/11 05:40:47;;;;;;;10.43;4.53;;;;;;;13.25;58.98;101689.16;6151770;23;20239;-69
2021/09/11 05:43:13;;;;;;;10.10;5.00;;;;;;;13.41;59.01;101691.22;6151153;23;20268;-67
2021/09/11 05:45:38;;;;;;;11.47;4.97;;;;;;;13.55;59.47;101694.56;6151258;23;20161;-67
2021/09/11 05:48:04;;;;;;;10.87;4.70;;;;;;;13.70;58.73;101697.84;6150787;23;20165;-67
2021/09/11 05:50:29;;;;;;;14.63;4.90;;;;;;;13.80;58.74;101689.28;6151807;23;20656;-67
2021/09/11 05:52:55;;;;;;;12.40;4.80;;;;;;;13.97;59.14;101696.50;6149945;23;20242;-67
2021/09/11 05:55:21;;;;;;;13.33;4.87;;;;;;;14.11;60.19;101689.81;6150774;23;20153;-67
2021/09/11 05:57:46;;;;;;;14.13;5.27;;;;;;;14.26;60.08;101691.91;6150353;23;20507;-67
2021/09/11 06:00:12;;;;;;;9.87;4.80;;;;;;;14.37;60.41;101674.94;6151198;23;20465;-67
2021/09/11 06:02:37;;;;;;;11.17;4.43;;;;;;;14.56;60.31;101686.03;6150547;23;20188;-67
2021/09/11 06:05:03;;;;;;;14.43;4.60;;;;;;;14.51;60.10;101655.09;6150823;23;20309;-67
2021/09/11 06:07:29;;;;;;;9.27;4.60;;;;;;;14.63;60.14;101657.19;6149888;23;20150;-67
2021/09/11 06:09:54;;;;;;;11.30;5.00;;;;;;;15.02;60.28;101690.50;6149515;23;20157;-67
2021/09/11 06:12:20;;;;;;;6.93;4.40;;;;;;;15.14;59.89;101684.22;6149761;23;20169;-66
2021/09/11 06:14:45;;;;;;;10.37;4.40;;;;;;;15.05;59.47;101651.34;6150708;23;20183;-69
2021/09/11 06:17:12;;;;;;;9.03;4.70;;;;;;;15.15;59.40;101653.06;6151017;23;20150;-67
2021/09/11 06:19:37;;;;;;;13.10;4.87;;;;;;;15.56;59.24;101697.88;6149035;23;20608;-67
2021/09/11 06:22:04;;;;;;;11.27;5.30;;;;;;;15.70;59.12;101697.50;6150881;23;20190;-67
2021/09/11 06:24:30;;;;;;;10.77;5.20;;;;;;;15.77;58.58;101696.50;6124639;23;20260;-67
2021/09/11 06:26:56;;;;;;;12.53;5.77;;;;;;;15.54;58.75;101654.84;6150604;23;20286;-67
2021/09/11 06:29:21;;;;;;;13.50;5.30;;;;;;;15.88;58.50;101678.19;6149782;23;20234;-67
2021/09/11 06:31:48;;;;;;;13.47;5.17;;;;;;;16.03;58.45;101698.91;6150198;23;20150;-67
2021/09/11 06:34:13;;;;;;;13.43;5.67;;;;;;;16.04;58.66;101668.97;6148984;23;20167;-67
2021/09/11 06:36:39;;;;;;;11.57;5.70;;;;;;;15.96;58.34;101651.59;6149274;23;20163;-67
2021/09/11 06:39:04;;;;;;;10.53;4.70;;;;;;;16.28;58.13;101686.97;6149525;23;20204;-67
2021/09/11 06:41:29;;;;;;;10.37;5.40;;;;;;;16.47;57.97;101685.25;6150808;23;20156;-67
2021/09/11 06:43:55;;;;;;;13.73;5.50;;;;;;;16.49;57.14;101664.75;6151048;23;20180;-67
2021/09/11 06:46:21;;;;;;;11.63;5.03;;;;;;;16.69;56.49;101681.31;6150815;23;20156;-67
2021/09/11 06:48:46;;;;;;;15.40;5.00;;;;;;;16.45;56.02;101629.75;6149423;23;20167;-67
2021/09/11 06:51:12;;;;;;;9.97;5.13;;;;;;;16.79;55.13;101681.00;6149934;23;20156;-67
2021/09/11 06:53:38;;;;;;;9.70;4.77;;;;;;;16.75;55.56;101671.16;6128084;23;20173;-67
2021/09/11 06:56:04;;;;;;;9.07;4.77;;;;;;;16.98;54.57;101676.38;6143203;23;20234;-67
2021/09/11 06:58:29;;;;;;;9.17;4.30;;;;;;;17.08;54.03;101678.03;6146266;23;20376;-67
2021/09/11 07:00:55;;;;;;;10.57;4.63;;;;;;;17.00;54.59;101674.69;6148042;23;20161;-67
2021/09/11 07:03:20;;;;;;;8.27;4.73;;;;;;;17.26;54.42;101690.19;6118524;23;20177;-67
2021/09/11 07:05:46;;;;;;;8.10;4.63;;;;;;;17.04;53.95;101624.16;6133894;23;20161;-68
2021/09/11 07:08:11;;;;;;;7.90;4.27;;;;;;;17.50;53.68;101682.19;6136880;23;20652;-68
2021/09/11 07:10:37;;;;;;;12.60;4.27;;;;;;;17.72;52.98;101690.63;6138749;23;20200;-68
2021/09/11 07:13:02;;;;;;;13.87;4.57;;;;;;;17.86;52.71;101685.25;6143793;23;20603;-68
2021/09/11 07:15:28;;;;;;;7.43;4.30;;;;;;;17.92;52.55;101679.84;6136644;23;20166;-68
2021/09/11 07:17:55;;;;;;;10.37;4.20;;;;;;;18.03;52.23;101687.41;6145539;23;20378;-68
2021/09/11 07:20:21;;;;;;;12.57;4.20;;;;;;;18.12;51.09;101680.28;6145435;23;20161;-68
2021/09/11 07:22:46;;;;;;;11.63;4.83;;;;;;;18.15;51.02;101685.78;6145346;23;20209;-68
2021/09/11 07:25:12;;;;;;;8.90;5.20;;;;;;;18.03;50.23;101647.38;6141377;23;20545;-68
2021/09/11 07:27:37;;;;;;;8.50;4.90;;;;;;;18.35;49.34;101672.19;6145099;23;20208;-68
2021/09/11 07:30:03;;;;;;;10.97;5.10;;;;;;;18.48;49.02;101683.31;6144518;23;20480;-68
2021/09/11 07:32:29;;;;;;;12.47;5.20;;;;;;;18.44;49.79;101685.47;6146639;23;20213;-68
2021/09/11 07:34:54;;;;;;;9.73;4.93;;;;;;;18.49;50.72;101682.06;6144741;23;20154;-68
2021/09/11 07:37:20;;;;;;;9.40;4.90;;;;;;;18.52;51.25;101675.56;6145934;23;20161;-68
2021/09/11 07:39:47;;;;;;;12.57;4.63;;;;;;;18.49;51.16;101651.19;6147224;23;20240;-68
2021/09/11 07:42:13;;;;;;;11.20;4.73;;;;;;;18.59;51.27;101670.44;6146800;23;20369;-68
2021/09/11 07:44:39;;;;;;;7.53;4.10;;;;;;;18.61;51.47;101655.91;6145027;23;20181;-68
2021/09/11 07:47:04;;;;;;;8.50;4.73;;;;;;;18.83;50.71;101679.84;6145764;23;20160;-68
2021/09/11 07:49:30;;;;;;;9.90;5.40;;;;;;;18.84;47.39;101678.59;6146268;23;20610;-69
2021/09/11 07:51:55;;;;;;;21.73;5.60;;;;;;;18.87;46.12;101680.50;6147291;23;20154;-69
2021/09/11 07:54:21;;;;;;;9.60;5.47;;;;;;;19.06;47.60;101675.69;6143695;23;20150;-69
2021/09/11 07:56:46;;;;;;;13.00;4.90;;;;;;;19.22;47.88;101670.59;6144718;23;20151;-69
2021/09/11 07:59:11;;;;;;;11.17;5.40;;;;;;;19.34;47.71;101675.28;6145525;23;20163;-68
2021/09/11 08:01:37;;;;;;;11.47;4.80;;;;;;;19.37;47.38;101643.47;6141554;23;20163;-68
2021/09/11 08:04:03;;;;;;;14.83;4.83;;;;;;;19.75;46.54;101671.09;6142231;23;20696;-69
2021/09/11 08:06:28;;;;;;;17.90;5.40;;;;;;;19.57;42.47;101648.59;6141746;23;20251;-69
2021/09/11 08:08:54;;;;;;;12.87;5.70;;;;;;;19.83;43.84;101667.47;6119130;23;20164;-69
2021/09/11 08:11:19;;;;;;;9.20;4.17;;;;;;;19.91;43.07;101662.31;6148332;23;20162;-68
2021/09/11 08:13:44;;;;;;;8.17;4.47;;;;;;;19.97;42.77;101652.78;6144503;23;20574;-69
2021/09/11 08:16:10;;;;;;;10.77;4.37;;;;;;;20.30;42.35;101664.09;6147575;23;20239;-69
2021/09/11 08:18:36;;;;;;;12.50;4.13;;;;;;;20.46;42.59;101650.44;6146625;23;20158;-69
2021/09/11 08:21:03;;;;;;;10.33;4.90;;;;;;;20.66;41.92;101652.69;6149071;23;20161;-69
2021/09/11 08:23:29;;;;;;;9.27;4.27;;;;;;;20.79;41.59;101651.22;6148428;23;20524;-69
2021/09/11 08:25:55;;;;;;;8.73;4.57;;;;;;;20.87;41.43;101646.03;6147224;23;20154;-68
2021/09/11 08:28:20;;;;;;;12.93;4.70;;;;;;;20.91;40.93;101641.78;6147762;23;20260;-69
2021/09/11 08:30:46;;;;;;;10.17;4.67;;;;;;;21.08;41.62;101644.97;6146502;23;20161;-69
2021/09/11 08:33:13;;;;;;;9.27;4.60;;;;;;;21.19;41.19;101636.75;6147969;23;20547;-69
2021/09/11 08:35:40;;;;;;;7.70;4.40;;;;;;;21.25;40.44;101644.06;6146849;23;20173;-68
2021/09/11 08:38:05;;;;;;;9.50;5.00;;;;;;;21.42;39.76;101639.53;6116376;23;20154;-68
2021/09/11 08:40:31;;;;;;;11.33;4.60;;;;;;;21.54;39.50;101632.84;6148116;23;20232;-68
2021/09/11 08:42:58;;;;;;;12.77;4.30;;;;;;;21.74;39.72;101630.16;6145069;23;20265;-68
2021/09/11 08:45:23;;;;;;;12.30;4.97;;;;;;;21.67;39.28;101595.88;6145065;23;20526;-68
2021/09/11 08:47:50;;;;;;;11.97;4.40;;;;;;;22.02;38.69;101625.00;6147192;23;20229;-68
2021/09/11 08:50:17;;;;;;;9.80;4.80;;;;;;;22.16;38.65;101621.41;6122053;23;20619;-68
2021/09/11 08:52:45;;;;;;;14.33;4.53;;;;;;;22.35;38.53;101623.50;6148041;23;20158;-68
2021/09/11 08:55:12;;;;;;;13.40;4.40;;;;;;;22.52;38.25;101615.34;6146880;23;20193;-68
2021/09/11 08:57:38;;;;;;;9.27;4.30;;;;;;;22.31;37.99;101577.75;6149114;23;20153;-68
2021/09/11 09:00:07;;;;;;;8.37;4.37;;;;;;;22.65;37.46;101612.94;6148728;23;20154;-68
2021/09/11 09:02:35;;;;;;;8.93;3.90;;;;;;;22.47;37.36;101585.72;6122473;23;20531;-68
2021/09/11 09:05:03;;;;;;;9.13;4.40;;;;;;;22.73;36.48;101612.03;6147706;23;20633;-68
2021/09/11 09:07:29;;;;;;;11.10;4.17;;;;;;;22.70;36.63;101615.06;6149199;23;20237;-68
2021/09/11 09:10:01;;;;;;;10.10;4.00;;;;;;;22.68;35.21;101595.78;6149365;23;20180;-68
2021/09/11 09:12:31;;;;;;;12.90;4.30;;;;;;;22.81;36.15;101581.31;6149055;23;20505;-68
2021/09/11 09:15:05;;;;;;;10.90;4.10;;;;;;;23.17;34.61;101597.69;6149507;23;20154;-68
2021/09/11 09:17:54;;;;;;;7.80;3.60;;;;;;;23.46;34.11;101606.03;6148618;23;20142;-68
2021/09/11 09:20:29;;;;;;;7.63;3.60;;;;;;;23.50;34.21;101595.28;6150116;23;20154;-68
2021/09/11 09:22:58;;;;;;;7.97;3.67;;;;;;;23.66;32.84;101586.97;6150943;23;20622;-68
2021/09/11 09:25:30;;;;;;;9.23;3.57;;;;;;;23.83;32.86;101592.78;6150044;23;20180;-68
2021/09/11 09:28:02;;;;;;;11.30;4.00;;;;;;;23.86;33.87;101591.78;6149215;23;20200;-69
2021/09/11 09:30:39;;;;;;;10.03;4.07;;;;;;;24.00;34.21;101591.69;6150817;23;20488;-68
2021/09/11 09:33:06;;;;;;;11.13;3.93;;;;;;;24.11;34.81;101579.69;6151015;23;20176;-68
2021/09/11 09:35:33;;;;;;;8.47;4.20;;;;;;;24.22;34.41;101543.72;6150505;23;20581;-69
2021/09/11 09:38:04;;;;;;;10.80;4.07;;;;;;;24.72;34.32;101586.56;6148984;23;20178;-68
2021/09/11 09:40:35;;;;;;;14.17;4.53;;;;;;;24.96;33.93;101579.19;6148631;23;20142;-69
2021/09/11 09:43:01;;;;;;;9.07;4.00;;;;;;;24.96;33.50;101567.84;6150803;23;20213;-69
2021/09/11 09:45:31;;;;;;;8.67;4.00;;;;;;;25.17;32.99;101576.97;6150746;23;20150;-68
2021/09/11 09:48:11;;;;;;;8.17;3.70;;;;;;;25.43;32.47;101566.22;6149007;23;20510;-68
2021/09/11 09:50:41;;;;;;;8.27;3.77;;;;;;;25.53;32.27;101556.19;6149577;23;20684;-68
2021/09/11 09:53:09;;;;;;;8.47;3.70;;;;;;;25.69;31.16;101567.53;6150429;23;20663;-68
2021/09/11 09:55:39;;;;;;;11.13;3.97;;;;;;;25.75;31.31;101570.41;6139318;23;20564;-68
2021/09/11 09:58:05;;;;;;;9.90;4.00;;;;;;;25.98;32.28;101563.44;6147346;23;20196;-68
2021/09/11 10:00:31;;;;;;;10.13;3.43;;;;;;;25.92;29.52;101518.03;6147164;23;20599;-68
2021/09/11 10:02:56;;;;;;;11.53;3.83;;;;;;;26.33;29.30;101558.78;6148044;23;20543;-68
2021/09/11 10:05:25;;;;;;;7.30;3.10;;;;;;;26.46;29.86;101553.31;6147161;23;20604;-68
2021/09/11 10:08:01;;;;;;;9.20;3.37;;;;;;;26.70;28.35;101555.59;6139565;23;20205;-68
2021/09/11 10:10:29;;;;;;;9.67;3.37;;;;;;;26.86;28.19;101549.84;6146536;23;20159;-68
2021/09/11 10:13:07;;;;;;;6.37;3.27;;;;;;;26.76;27.26;101548.59;6149162;23;20216;-68
2021/09/11 10:15:38;;;;;;;12.50;3.40;;;;;;;26.73;28.88;101543.19;6149178;23;20138;-68
2021/09/11 10:18:24;;;;;;;11.83;3.17;;;;;;;26.89;28.80;101525.28;6148312;23;20164;-68
2021/09/11 10:21:12;;;;;;;7.80;3.00;;;;;;;27.28;26.88;101548.66;6148524;23;20165;-68
2021/09/11 10:23:38;;;;;;;13.50;3.17;;;;;;;27.38;25.99;101542.09;6144707;23;20563;-68
2021/09/11 10:26:03;;;;;;;7.93;2.70;;;;;;;27.36;26.73;101504.06;6146614;23;20162;-68
2021/09/11 10:28:29;;;;;;;7.17;2.90;;;;;;;27.74;26.11;101534.34;6144256;23;20146;-68
2021/09/11 10:31:08;;;;;;;5.77;2.87;;;;;;;27.92;26.17;101533.69;6144841;23;20216;-68
2021/09/11 10:33:46;;;;;;;8.32;3.13;;;;;;;28.07;26.12;101532.00;6148787;23;20500;-68
2021/09/11 10:36:23;;;;;;;7.38;3.30;;;;;;;28.10;26.11;101507.38;6149201;23;20177;-69
2021/09/11 10:38:51;;;;;;;9.50;3.08;;;;;;;28.33;25.54;101520.84;6147633;23;20145;-67
2021/09/11 10:41:18;;;;;;;9.73;3.30;;;;;;;28.47;25.02;101524.63;6150058;23;20538;-66
2021/09/11 10:44:09;;;;;;;7.80;3.40;;;;;;;28.68;24.81;101525.66;6149452;23;20220;-65
2021/09/11 10:46:50;;;;;;;7.93;3.10;;;;;;;28.78;25.20;101521.91;6148613;23;20161;-65
2021/09/11 10:49:34;;;;;;;9.77;3.53;;;;;;;28.64;25.66;101480.34;6149512;23;20161;-65
2021/09/11 10:52:07;;;;;;;7.93;3.22;;;;;;;28.84;25.12;101510.41;6149558;23;20236;-66
2021/09/11 10:54:38;;;;;;;7.15;3.13;;;;;;;28.97;25.82;101516.25;6150388;23;20229;-66
2021/09/11 10:57:14;;;;;;;9.20;3.38;;;;;;;29.14;24.67;101505.38;6151670;23;20150;-66
2021/09/11 10:59:46;;;;;;;7.43;3.60;;;;;;;29.30;23.96;101510.06;6149250;23;20192;-66
2021/09/11 11:02:13;;;;;;;9.05;3.47;;;;;;;29.35;23.22;101506.34;6151623;23;20487;-66
2021/09/11 11:04:51;;;;;;;8.60;4.00;;;;;;;29.48;23.41;101497.84;6150904;23;20189;-65
2021/09/11 11:07:21;;;;;;;7.07;3.67;;;;;;;29.48;23.24;101495.00;6152859;23;20137;-65
2021/09/11 11:09:51;;;;;;;7.65;3.88;;;;;;;29.54;24.11;101492.81;6153385;23;20154;-65
2021/09/11 11:12:31;;;;;;;10.40;4.20;;;;;;;29.56;24.33;101482.41;6153281;23;20588;-65
2021/09/11 11:15:07;;;;;;;9.60;4.40;;;;;;;29.71;23.03;101484.75;6153196;23;20140;-65
2021/09/11 11:17:37;;;;;;;13.00;4.70;;;;;;;29.86;22.86;101485.03;6153307;23;20567;-65
2021/09/11 11:20:06;;;;;;;7.80;4.60;;;;;;;29.90;22.84;101477.66;6127106;23;20317;-65
2021/09/11 11:22:38;;;;;;;11.65;4.43;;;;;;;30.07;22.35;101465.91;6153311;23;20161;-65